createdAt,value
2022-12-19T00:01:32.449Z,-7.11
2022-12-19T00:04:07.520Z,-7.07
2022-12-19T00:06:39.515Z,-7.07
2022-12-19T00:09:13.033Z,-7.05
2022-12-19T00:11:42.315Z,-6.97
2022-12-19T00:14:11.858Z,-6.92
2022-12-19T00:16:40.400Z,-6.91
2022-12-19T00:19:10.871Z,-6.92
2022-12-19T00:21:39.839Z,-7.00
2022-12-19T00:24:20.597Z,-7.01
2022-12-19T00:26:50.397Z,-7.02
2022-12-19T00:29:19.110Z,-7.07
2022-12-19T00:31:47.630Z,-7.11
2022-12-19T00:34:16.443Z,-7.14
2022-12-19T00:36:45.018Z,-7.10
2022-12-19T00:39:13.555Z,-7.04
2022-12-19T00:41:42.647Z,-7.02
2022-12-19T00:44:17.237Z,-7.01
2022-12-19T00:46:47.412Z,-7.10
2022-12-19T00:49:21.884Z,-7.17
2022-12-19T00:51:50.564Z,-7.15
2022-12-19T00:54:19.088Z,-7.16
2022-12-19T00:56:48.197Z,-7.16
2022-12-19T00:59:20.085Z,-7.13
2022-12-19T01:17:07.463Z,-6.92
2022-12-19T01:19:41.921Z,-6.96
2022-12-19T01:22:13.687Z,-7.01
2022-12-19T01:24:42.472Z,-7.09
2022-12-19T01:27:11.369Z,-7.11
2022-12-19T01:29:52.441Z,-7.10
2022-12-19T01:32:23.402Z,-7.14
2022-12-19T01:34:53.100Z,-7.18
2022-12-19T01:37:21.478Z,-7.23
2022-12-19T01:39:49.763Z,-7.26
2022-12-19T01:42:23.623Z,-7.31
2022-12-19T01:45:19.340Z,-7.31
2022-12-19T01:47:53.682Z,-7.31
2022-12-19T01:51:02.921Z,-7.33
2022-12-19T01:53:48.298Z,-7.37
2022-12-19T01:56:24.876Z,-7.32
2022-12-19T01:59:05.712Z,-7.31
2022-12-19T02:01:40.904Z,-7.32
2022-12-19T02:04:29.417Z,-7.30
2022-12-19T02:07:15.595Z,-7.29
2022-12-19T02:09:46.913Z,-7.28
2022-12-19T02:12:15.573Z,-7.24
2022-12-19T02:14:44.043Z,-7.19
2022-12-19T02:17:34.337Z,-7.17
2022-12-19T02:20:30.186Z,-7.16
2022-12-19T02:23:05.048Z,-7.12
2022-12-19T02:25:50.056Z,-7.09
2022-12-19T02:28:32.945Z,-7.07
2022-12-19T02:31:30.813Z,-7.10
2022-12-19T02:34:15.674Z,-7.18
2022-12-19T02:37:20.909Z,-7.23
2022-12-19T02:40:14.965Z,-7.32
2022-12-19T02:42:46.671Z,-7.37
2022-12-19T02:45:24.713Z,-7.32
2022-12-19T02:48:04.479Z,-7.29
2022-12-19T02:50:39.102Z,-7.24
2022-12-19T02:53:09.484Z,-7.21
2022-12-19T02:56:00.137Z,-7.17
2022-12-19T02:58:57.017Z,-7.21
2022-12-19T03:02:18.896Z,-7.27
2022-12-19T03:05:16.817Z,-7.26
2022-12-19T03:08:06.478Z,-7.36
2022-12-19T03:10:47.301Z,-7.40
2022-12-19T03:13:21.661Z,-7.43
2022-12-19T03:15:51.363Z,-7.42
2022-12-19T03:18:20.230Z,-7.41
2022-12-19T03:21:11.007Z,-7.40
2022-12-19T03:23:40.896Z,-7.35
2022-12-19T03:26:19.926Z,-7.30
2022-12-19T03:28:52.766Z,-7.30
2022-12-19T03:31:25.427Z,-7.32
2022-12-19T03:34:03.303Z,-7.24
2022-12-19T03:36:38.986Z,-7.23
2022-12-19T03:39:10.222Z,-7.32
2022-12-19T03:41:59.602Z,-7.39
2022-12-19T03:44:33.655Z,-7.40
2022-12-19T03:47:11.850Z,-7.34
2022-12-19T03:49:40.663Z,-7.34
2022-12-19T03:52:25.368Z,-7.40
2022-12-19T03:55:18.243Z,-7.43
2022-12-19T03:57:59.356Z,-7.46
2022-12-19T04:00:29.972Z,-7.46
2022-12-19T04:02:59.718Z,-7.45
2022-12-19T04:05:29.118Z,-7.46
2022-12-19T04:08:04.423Z,-7.45
2022-12-19T04:10:38.572Z,-7.42
2022-12-19T04:13:13.216Z,-7.38
2022-12-19T04:16:01.442Z,-7.36
2022-12-19T04:18:31.582Z,-7.39
2022-12-19T04:21:13.203Z,-7.40
2022-12-19T04:23:47.995Z,-7.36
2022-12-19T04:26:18.848Z,-7.39
2022-12-19T04:28:52.349Z,-7.35
2022-12-19T04:31:22.176Z,-7.31
2022-12-19T04:33:50.520Z,-7.32
2022-12-19T04:36:19.022Z,-7.39
2022-12-19T04:38:47.799Z,-7.42
2022-12-19T04:41:16.061Z,-7.44
2022-12-19T04:43:44.506Z,-7.49
2022-12-19T04:46:13.182Z,-7.54
2022-12-19T04:48:41.509Z,-7.59
2022-12-19T04:51:10.193Z,-7.64
2022-12-19T04:53:38.561Z,-7.62
2022-12-19T04:56:07.672Z,-7.63
2022-12-19T04:58:36.192Z,-7.62
2022-12-19T05:01:06.845Z,-7.60
2022-12-19T05:03:36.610Z,-7.64
2022-12-19T05:06:05.280Z,-7.65
2022-12-19T05:08:34.996Z,-7.65
2022-12-19T05:11:05.175Z,-7.62
2022-12-19T05:13:34.011Z,-7.61
2022-12-19T05:16:05.598Z,-7.61
2022-12-19T05:18:34.477Z,-7.64
2022-12-19T05:21:03.344Z,-7.62
2022-12-19T05:23:32.215Z,-7.59
2022-12-19T05:26:02.040Z,-7.60
2022-12-19T05:28:30.970Z,-7.60
2022-12-19T05:31:08.847Z,-7.61
2022-12-19T05:33:38.454Z,-7.59
2022-12-19T05:36:08.555Z,-7.61
2022-12-19T05:38:37.494Z,-7.62
2022-12-19T05:41:17.953Z,-7.63
2022-12-19T05:43:50.344Z,-7.63
2022-12-19T05:46:19.434Z,-7.62
2022-12-19T05:48:48.310Z,-7.62
2022-12-19T05:51:16.995Z,-7.60
2022-12-19T05:53:45.369Z,-7.63
2022-12-19T05:56:17.093Z,-7.60
2022-12-19T05:58:46.635Z,-7.57
2022-12-19T06:01:18.986Z,-7.57
2022-12-19T06:03:48.543Z,-7.57
2022-12-19T06:06:20.208Z,-7.56
2022-12-19T06:08:48.612Z,-7.53
2022-12-19T06:11:16.960Z,-7.52
2022-12-19T06:13:45.219Z,-7.50
2022-12-19T06:16:15.781Z,-7.50
2022-12-19T06:18:45.843Z,-7.47
2022-12-19T06:21:20.500Z,-7.46
2022-12-19T06:23:49.215Z,-7.43
2022-12-19T06:26:22.694Z,-7.42
2022-12-19T06:28:53.330Z,-7.42
2022-12-19T06:31:23.608Z,-7.42
2022-12-19T06:33:54.998Z,-7.41
2022-12-19T06:36:26.252Z,-7.43
2022-12-19T06:38:58.113Z,-7.42
2022-12-19T06:41:46.539Z,-7.41
2022-12-19T06:44:16.809Z,-7.40
2022-12-19T06:46:45.372Z,-7.37
2022-12-19T06:49:13.746Z,-7.35
2022-12-19T06:51:42.876Z,-7.33
2022-12-19T06:54:12.567Z,-7.29
2022-12-19T06:56:42.902Z,-7.27
2022-12-19T06:59:14.420Z,-7.29
2022-12-19T07:02:02.918Z,-7.25
2022-12-19T07:04:40.473Z,-7.23
2022-12-19T07:07:09.064Z,-7.24
2022-12-19T07:09:37.699Z,-7.25
2022-12-19T07:12:06.212Z,-7.25
2022-12-19T07:14:34.632Z,-7.26
2022-12-19T07:17:04.021Z,-7.22
2022-12-19T07:19:33.467Z,-7.20
2022-12-19T07:22:03.733Z,-7.19
2022-12-19T07:24:32.967Z,-7.16
2022-12-19T07:27:01.332Z,-7.15
2022-12-19T07:29:29.719Z,-7.14
2022-12-19T07:31:58.136Z,-7.11
2022-12-19T07:34:26.556Z,-7.08
2022-12-19T07:36:55.117Z,-7.04
2022-12-19T07:39:23.446Z,-6.99
2022-12-19T07:41:51.793Z,-6.95
2022-12-19T07:44:28.428Z,-6.94
2022-12-19T07:46:56.807Z,-6.89
2022-12-19T07:49:25.096Z,-6.86
2022-12-19T07:51:53.667Z,-6.83
2022-12-19T07:54:22.056Z,-6.80
2022-12-19T07:56:51.109Z,-6.77
2022-12-19T07:59:21.388Z,-6.75
2022-12-19T08:01:52.917Z,-6.71
2022-12-19T08:04:21.432Z,-6.66
2022-12-19T08:06:49.772Z,-6.63
2022-12-19T08:09:18.345Z,-6.61
2022-12-19T08:11:46.925Z,-6.56
2022-12-19T08:14:15.290Z,-6.51
2022-12-19T08:17:11.390Z,-6.44
2022-12-19T08:19:31.956Z,-6.36
2022-12-19T08:22:00.293Z,-6.30
2022-12-19T08:24:28.611Z,-6.25
2022-12-19T08:26:57.451Z,-6.19
2022-12-19T08:29:25.791Z,-6.14
2022-12-19T08:31:54.360Z,-6.08
2022-12-19T08:34:22.569Z,-5.98
2022-12-19T08:36:50.950Z,-5.91
2022-12-19T08:39:19.259Z,-5.85
2022-12-19T08:41:47.774Z,-5.77
2022-12-19T08:44:16.604Z,-5.70
2022-12-19T08:46:50.043Z,-5.62
2022-12-19T08:49:19.706Z,-5.58
2022-12-19T08:51:48.031Z,-5.49
2022-12-19T08:54:16.442Z,-5.46
2022-12-19T08:56:46.253Z,-5.42
2022-12-19T08:59:30.563Z,-5.36
2022-12-19T09:02:02.236Z,-5.28
2022-12-19T09:06:00.542Z,-5.21
2022-12-19T09:07:19.470Z,-5.13
2022-12-19T09:09:47.775Z,-5.05
2022-12-19T09:12:16.925Z,-4.97
2022-12-19T09:14:45.515Z,-4.93
2022-12-19T09:17:14.052Z,-4.89
2022-12-19T09:19:45.557Z,-4.85
2022-12-19T09:22:16.963Z,-4.79
2022-12-19T09:24:45.822Z,-4.65
2022-12-19T09:27:14.740Z,-4.55
2022-12-19T09:29:44.111Z,-4.42
2022-12-19T09:32:12.637Z,-4.27
2022-12-19T09:34:40.986Z,-4.13
2022-12-19T09:37:16.939Z,-4.04
2022-12-19T09:39:47.568Z,-3.99
2022-12-19T09:42:48.539Z,-3.93
2022-12-19T09:45:37.561Z,-3.79
2022-12-19T09:48:23.909Z,-3.64
2022-12-19T09:51:09.560Z,-3.52
2022-12-19T09:53:38.411Z,-3.46
2022-12-19T09:56:14.799Z,-3.38
2022-12-19T09:59:28.492Z,-3.27
2022-12-19T10:02:39.149Z,-3.09
2022-12-19T10:05:52.319Z,-2.94
2022-12-19T10:08:45.359Z,-2.73
2022-12-19T10:12:39.583Z,-2.61
2022-12-19T10:14:48.997Z,-2.58
2022-12-19T10:17:41.950Z,-2.56
2022-12-19T10:20:49.857Z,-2.49
2022-12-19T10:23:50.412Z,-2.38
2022-12-19T10:26:21.534Z,-2.27
2022-12-19T10:29:13.515Z,-2.23
2022-12-19T10:32:17.805Z,-2.18
2022-12-19T10:34:48.237Z,-2.12
2022-12-19T10:37:31.435Z,-2.10
2022-12-19T10:40:34.901Z,-2.01
2022-12-19T10:43:18.230Z,-1.94
2022-12-19T10:45:58.570Z,-1.93
2022-12-19T10:48:30.734Z,-1.84
2022-12-19T10:51:06.484Z,-1.70
2022-12-19T10:53:35.578Z,-1.60
2022-12-19T10:56:23.270Z,-1.54
2022-12-19T10:58:57.556Z,-1.49
2022-12-19T11:01:27.555Z,-1.38
2022-12-19T11:04:34.862Z,-1.33
2022-12-19T11:07:03.936Z,-1.27
2022-12-19T11:09:45.998Z,-1.23
2022-12-19T11:16:15.360Z,-1.14
2022-12-19T11:20:51.999Z,-1.08
2022-12-19T11:29:14.654Z,-0.98
2022-12-19T11:29:37.271Z,-0.95
2022-12-19T11:30:37.380Z,-0.95
2022-12-19T11:30:42.812Z,-0.94
2022-12-19T11:32:44.480Z,-1.04
2022-12-19T11:35:24.826Z,-1.06
2022-12-19T11:37:58.345Z,-1.14
2022-12-19T11:40:49.856Z,-1.32
2022-12-19T11:43:46.914Z,-1.45
2022-12-19T11:46:45.108Z,-1.59
2022-12-19T11:49:38.855Z,-1.68
2022-12-19T11:52:29.626Z,-1.82
2022-12-19T11:55:08.254Z,-1.97
2022-12-19T11:57:39.039Z,-2.05
2022-12-19T12:00:13.227Z,-2.05
2022-12-19T12:03:12.620Z,-2.09
2022-12-19T12:05:48.539Z,-2.19
2022-12-19T12:12:00.383Z,-2.32
2022-12-19T12:15:00.028Z,-2.44
2022-12-19T12:27:11.796Z,-2.50
2022-12-19T12:31:00.177Z,-2.55
2022-12-19T12:31:26.999Z,-2.64
2022-12-19T12:31:50.450Z,-2.86
2022-12-19T12:32:02.520Z,-2.89
2022-12-19T12:32:03.003Z,-2.77
2022-12-19T12:35:52.125Z,-2.93
2022-12-19T12:39:36.678Z,-2.91
2022-12-19T12:42:20.198Z,-2.96
2022-12-19T12:44:52.914Z,-2.99
2022-12-19T12:47:26.272Z,-3.02
2022-12-19T12:50:00.882Z,-3.04
2022-12-19T12:52:40.609Z,-3.05
2022-12-19T12:55:40.342Z,-3.05
2022-12-19T12:58:46.500Z,-3.05
2022-12-19T13:01:30.423Z,-3.02
2022-12-19T13:04:10.999Z,-3.00
2022-12-19T13:06:52.077Z,-2.99
2022-12-19T13:09:20.567Z,-3.00
2022-12-19T13:12:13.033Z,-3.02
2022-12-19T13:14:44.690Z,-3.03
2022-12-19T13:17:20.661Z,-3.03
2022-12-19T13:20:05.603Z,-2.99
2022-12-19T13:22:33.900Z,-2.99
2022-12-19T13:25:02.255Z,-2.98
2022-12-19T13:27:37.435Z,-2.99
2022-12-19T13:30:14.973Z,-2.99
2022-12-19T13:32:43.604Z,-2.99
2022-12-19T13:37:07.553Z,-2.95
2022-12-19T13:39:57.818Z,-2.95
2022-12-19T13:41:48.598Z,-2.90
2022-12-19T13:44:22.447Z,-2.91
2022-12-19T13:46:51.073Z,-2.90
2022-12-19T13:49:30.536Z,-2.89
2022-12-19T13:52:04.857Z,-2.86
2022-12-19T13:54:51.917Z,-2.81
2022-12-19T13:57:30.793Z,-2.78
2022-12-19T14:00:06.708Z,-2.76
2022-12-19T14:02:46.358Z,-2.79
2022-12-19T14:06:15.171Z,-2.80
2022-12-19T14:08:25.092Z,-2.78
2022-12-19T14:11:38.340Z,-2.77
2022-12-19T14:14:17.441Z,-2.77
2022-12-19T14:16:47.819Z,-2.74
2022-12-19T14:19:25.144Z,-2.75
2022-12-19T14:22:04.563Z,-2.72
2022-12-19T14:24:41.706Z,-2.69
2022-12-19T14:28:18.229Z,-2.65
2022-12-19T14:30:27.920Z,-2.64
2022-12-19T14:33:46.640Z,-2.59
2022-12-19T14:36:06.506Z,-2.57
2022-12-19T14:39:22.536Z,-2.55
2022-12-19T14:42:02.493Z,-2.53
2022-12-19T14:52:08.397Z,-2.49
2022-12-19T14:54:03.494Z,-2.44
2022-12-19T14:54:30.696Z,-2.41
2022-12-19T14:54:40.482Z,-2.32
2022-12-19T14:59:42.345Z,-2.27
2022-12-19T15:26:28.915Z,-1.67
2022-12-19T15:28:58.337Z,-1.74
2022-12-19T15:31:40.440Z,-1.78
2022-12-19T15:34:48.293Z,-1.86
2022-12-19T15:37:15.002Z,-1.95
2022-12-19T15:39:44.670Z,-2.03
2022-12-19T15:42:23.047Z,-2.08
2022-12-19T15:44:53.868Z,-2.09
2022-12-19T15:47:30.001Z,-2.09
2022-12-19T15:50:02.659Z,-2.09
2022-12-19T15:52:30.997Z,-2.10
2022-12-19T15:54:59.257Z,-2.12
2022-12-19T15:57:36.438Z,-2.10
2022-12-19T16:00:17.167Z,-2.10
2022-12-19T16:05:36.203Z,-2.08
2022-12-19T16:08:12.176Z,-2.07
2022-12-19T16:10:41.912Z,-2.05
2022-12-19T16:13:24.394Z,-2.05
2022-12-19T16:15:55.096Z,-2.05
2022-12-19T16:18:23.735Z,-2.04
2022-12-19T16:20:52.389Z,-2.04
2022-12-19T16:23:22.439Z,-2.05
2022-12-19T16:25:52.082Z,-2.03
2022-12-19T16:28:23.917Z,-2.03
2022-12-19T16:30:52.785Z,-2.02
2022-12-19T16:33:24.048Z,-2.02
2022-12-19T16:36:04.077Z,-2.01
2022-12-19T16:38:33.645Z,-2.01
2022-12-19T16:41:02.793Z,-2.00
2022-12-19T16:43:40.939Z,-1.98
2022-12-19T16:46:17.693Z,-1.94
2022-12-19T16:48:50.010Z,-1.91
2022-12-19T16:51:24.822Z,-1.92
2022-12-19T16:53:57.679Z,-1.95
2022-12-19T16:56:25.844Z,-1.94
2022-12-19T16:58:56.495Z,-1.95
2022-12-19T17:01:24.881Z,-1.97
2022-12-19T17:03:54.522Z,-1.97
2022-12-19T17:06:23.946Z,-1.96
2022-12-19T17:08:54.033Z,-1.92
2022-12-19T17:11:24.908Z,-1.89
2022-12-19T17:14:00.608Z,-1.87
2022-12-19T17:16:31.185Z,-1.84
2022-12-19T17:18:59.984Z,-1.82
2022-12-19T17:21:28.523Z,-1.83
2022-12-19T17:23:56.988Z,-1.85
2022-12-19T17:26:25.336Z,-1.89
2022-12-19T17:28:53.660Z,-1.92
2022-12-19T17:31:26.450Z,-1.93
2022-12-19T17:33:57.937Z,-1.91
2022-12-19T17:36:36.757Z,-1.89
2022-12-19T17:39:23.169Z,-1.89
2022-12-19T17:41:52.980Z,-1.91
2022-12-19T17:44:21.339Z,-1.92
2022-12-19T17:46:49.937Z,-1.93
2022-12-19T17:49:27.120Z,-1.93
2022-12-19T17:51:56.249Z,-1.94
2022-12-19T17:54:25.744Z,-1.93
2022-12-19T17:56:54.098Z,-1.94
2022-12-19T17:59:22.449Z,-1.94
2022-12-19T18:01:51.084Z,-1.95
2022-12-19T18:04:21.790Z,-1.94
2022-12-19T18:06:50.801Z,-1.95
2022-12-19T18:09:25.353Z,-1.94
2022-12-19T18:11:53.722Z,-1.93
2022-12-19T18:14:22.063Z,-1.94
2022-12-19T18:16:50.951Z,-1.90
2022-12-19T18:19:21.851Z,-1.91
2022-12-19T18:21:50.585Z,-1.89
2022-12-19T18:24:18.924Z,-1.89
2022-12-19T18:26:47.262Z,-1.90
2022-12-19T18:29:16.429Z,-1.89
2022-12-19T18:31:50.577Z,-1.86
2022-12-19T18:34:23.239Z,-1.84
2022-12-19T18:36:52.610Z,-1.79
2022-12-19T18:39:24.945Z,-1.79
2022-12-19T18:41:53.766Z,-1.82
2022-12-19T18:44:23.221Z,-1.79
2022-12-19T18:46:53.008Z,-1.81
2022-12-19T18:49:22.997Z,-1.78
2022-12-19T18:51:51.455Z,-1.75
2022-12-19T18:54:22.326Z,-1.73
2022-12-19T18:56:51.948Z,-1.72
2022-12-19T18:59:20.591Z,-1.70
2022-12-19T19:01:49.133Z,-1.69
2022-12-19T19:04:18.339Z,-1.68
2022-12-19T19:06:51.413Z,-1.66
2022-12-19T19:09:21.658Z,-1.65
2022-12-19T19:12:02.447Z,-1.63
2022-12-19T19:14:30.905Z,-1.60
2022-12-19T19:16:59.245Z,-1.53
2022-12-19T19:19:27.706Z,-1.46
2022-12-19T19:21:56.198Z,-1.49
2022-12-19T19:24:24.585Z,-1.51
2022-12-19T19:26:53.052Z,-1.51
2022-12-19T19:29:21.826Z,-1.49
2022-12-19T19:31:51.993Z,-1.49
2022-12-19T19:34:31.720Z,-1.47
2022-12-19T19:37:03.722Z,-1.45
2022-12-19T19:39:34.194Z,-1.38
2022-12-19T19:42:02.964Z,-1.35
2022-12-19T19:44:32.550Z,-1.34
2022-12-19T19:47:01.015Z,-1.36
2022-12-19T19:49:29.416Z,-1.35
2022-12-19T19:52:02.564Z,-1.36
2022-12-19T19:54:32.336Z,-1.36
2022-12-19T19:57:00.775Z,-1.33
2022-12-19T19:59:31.434Z,-1.37
2022-12-19T20:02:00.484Z,-1.40
2022-12-19T20:04:29.313Z,-1.38
2022-12-19T20:06:57.623Z,-1.33
2022-12-19T20:09:26.187Z,-1.31
2022-12-19T20:11:56.572Z,-1.30
2022-12-19T20:14:26.988Z,-1.30
2022-12-19T20:16:55.435Z,-1.29
2022-12-19T20:19:23.744Z,-1.25
2022-12-19T20:21:52.478Z,-1.21
2022-12-19T20:24:20.955Z,-1.16
2022-12-19T20:26:49.417Z,-1.06
2022-12-19T20:29:17.809Z,-1.06
2022-12-19T20:31:46.329Z,-1.07
2022-12-19T20:34:14.799Z,-1.05
2022-12-19T20:36:43.083Z,-1.04
2022-12-19T20:39:12.574Z,-1.02
2022-12-19T20:41:40.956Z,-1.03
2022-12-19T20:44:09.453Z,-1.04
2022-12-19T20:46:38.140Z,-1.07
2022-12-19T20:49:06.565Z,-1.07
2022-12-19T20:51:34.904Z,-1.08
2022-12-19T20:54:04.876Z,-1.09
2022-12-19T20:56:33.239Z,-1.10
2022-12-19T20:59:01.790Z,-1.09
2022-12-19T21:01:31.671Z,-1.06
2022-12-19T21:04:00.296Z,-1.05
2022-12-19T21:06:29.051Z,-1.04
2022-12-19T21:08:58.015Z,-1.00
2022-12-19T21:11:27.863Z,-0.99
2022-12-19T21:13:56.146Z,-0.98
2022-12-19T21:16:24.851Z,-0.96
2022-12-19T21:18:53.339Z,-0.96
2022-12-19T21:21:26.129Z,-0.95
2022-12-19T21:23:55.260Z,-0.95
2022-12-19T21:26:26.029Z,-0.94
2022-12-19T21:28:58.083Z,-0.91
2022-12-19T21:31:30.030Z,-0.86
2022-12-19T21:34:00.564Z,-0.75
2022-12-19T21:36:30.797Z,-0.72
2022-12-19T21:39:02.237Z,-0.72
2022-12-19T21:41:31.566Z,-0.66
2022-12-19T21:44:00.707Z,-0.61
2022-12-19T21:46:33.212Z,-0.57
2022-12-19T21:49:03.317Z,-0.56
2022-12-19T21:51:32.500Z,-0.53
2022-12-19T21:54:03.690Z,-0.51
2022-12-19T21:56:35.009Z,-0.48
2022-12-19T21:59:06.997Z,-0.45
2022-12-19T22:01:36.043Z,-0.40
2022-12-19T22:04:07.886Z,-0.36
2022-12-19T22:06:38.024Z,-0.25
2022-12-19T22:09:09.180Z,-0.19
2022-12-19T22:11:38.043Z,-0.15
2022-12-19T22:14:07.314Z,-0.13
2022-12-19T22:16:36.326Z,-0.09
2022-12-19T22:19:05.284Z,-0.01
2022-12-19T22:21:34.037Z,0.07
2022-12-19T22:24:03.774Z,0.12
2022-12-19T22:26:33.170Z,0.21
2022-12-19T22:29:01.517Z,0.25
2022-12-19T22:31:31.918Z,0.28
2022-12-19T22:34:12.750Z,0.33
2022-12-19T22:36:42.935Z,0.40
2022-12-19T22:39:14.416Z,0.42
2022-12-19T22:41:43.267Z,0.44
2022-12-19T22:44:23.699Z,0.44
2022-12-19T22:46:52.716Z,0.47
2022-12-19T22:49:21.317Z,0.49
2022-12-19T22:51:50.214Z,0.52
2022-12-19T22:54:18.633Z,0.56
2022-12-19T22:56:50.761Z,0.63
2022-12-19T22:59:19.413Z,0.73
2022-12-19T23:01:48.092Z,0.76
2022-12-19T23:04:17.616Z,0.75
2022-12-19T23:06:46.477Z,0.75
2022-12-19T23:09:16.994Z,0.78
2022-12-19T23:11:48.809Z,0.82
2022-12-19T23:14:19.176Z,0.83
2022-12-19T23:16:48.469Z,0.83
2022-12-19T23:19:17.642Z,0.87
2022-12-19T23:21:46.234Z,0.89
2022-12-19T23:24:15.242Z,0.94
2022-12-19T23:26:43.723Z,0.98
2022-12-19T23:29:15.007Z,1.01
2022-12-19T23:31:45.377Z,1.05
2022-12-19T23:34:15.496Z,1.06
2022-12-19T23:39:33.346Z,1.15
2022-12-19T23:42:01.672Z,1.24
2022-12-19T23:44:30.274Z,1.31
2022-12-19T23:47:02.912Z,1.37
2022-12-19T23:49:33.822Z,1.44
2022-12-19T23:52:02.569Z,1.44
2022-12-19T23:54:31.391Z,1.45
2022-12-19T23:56:59.688Z,1.46
2022-12-19T23:59:28.075Z,1.47
